ADDS METAR Data INFO
IDs: Format: Raw Decoded Include TAF

Data at: 0202 UTC 17 Oct 2017

KOLE 170155Z AUTO 00000KT 10SM CLR 01/M01 A3024 RMK AO2
KOLE 170135Z AUTO 00000KT 10SM CLR 01/M01 A3024 RMK AO2
KOLE 170115Z AUTO 00000KT 10SM CLR 01/M01 A3024 RMK AO2
KOLE 170055Z AUTO 00000KT 10SM CLR 01/M01 A3024 RMK AO2
KOLE 170035Z AUTO 00000KT 10SM CLR 01/M01 A3023 RMK AO2
KOLE 170015Z AUTO 00000KT 10SM CLR 01/M01 A3023 RMK AO2
KOLE 162355Z AUTO 00000KT 10SM CLR 01/M01 A3023 RMK AO2
KOLE 162335Z AUTO 00000KT 10SM CLR 02/M01 A3023 RMK AO2
KOLE 162315Z AUTO 00000KT 10SM CLR 02/M01 A3022 RMK AO2
KOLE 162255Z AUTO 00000KT 10SM CLR 02/M01 A3022 RMK AO2
KOLE 162235Z AUTO 30003KT 10SM SCT037 03/M01 A3021 RMK AO2
KOLE 162215Z AUTO 31007KT 280V350 10SM BKN036 03/M01 A3021 RMK AO2
KOLE 162155Z AUTO 31006KT 10SM BKN036 05/M01 A3021 RMK AO2
KOLE 162135Z AUTO 28005KT 10SM BKN038 05/M02 A3020 RMK AO2
KOLE 162115Z AUTO 29008G16KT 260V320 10SM BKN035 BKN040 05/M02 A3019 RMK AO2
KOLE 162055Z AUTO 30006KT 10SM OVC035 05/M02 A3018 RMK AO2
KOLE 162035Z AUTO 30010G18KT 260V340 10SM BKN035 BKN042 06/M01 A3018 RMK AO2
KOLE 162015Z AUTO 32010G19KT 290V350 10SM SCT035 06/M01 A3018 RMK AO2
KOLE 161955Z AUTO 32008G14KT 290V350 10SM BKN035 BKN044 07/M01 A3017 RMK AO2
KOLE 161935Z AUTO 31010G17KT 280V350 10SM BKN035 BKN044 06/M01 A3017 RMK AO2
KOLE 161915Z AUTO 27007G14KT 10SM BKN037 07/M01 A3016 RMK AO2
KOLE 161855Z AUTO 31010G18KT 10SM SCT035 06/M02 A3015 RMK AO2
KOLE 161835Z AUTO 31009G18KT 280V350 10SM SCT035 06/M01 A3015 RMK AO2
KOLE 161815Z AUTO 31008G17KT 10SM BKN037 06/M01 A3015 RMK AO2
KOLE 161755Z AUTO 30008G20KT 270V330 10SM SCT039 06/M01 A3016 RMK AO2
KOLE 161735Z AUTO 29010G18KT 260V320 10SM SCT037 05/M01 A3016 RMK AO2
KOLE 161715Z AUTO 30008G16KT 10SM BKN039 07/M01 A3015 RMK AO2
KOLE 161655Z AUTO 30011G20KT 270V330 10SM SCT028 SCT034 BKN041 06/00 A3016 RMK AO2
KOLE 161635Z AUTO 29010G18KT 260V320 10SM SCT028 BKN038 BKN046 06/00 A3016 RMK AO2
KOLE 161615Z AUTO 30012G19KT 270V330 10SM SCT025 SCT030 SCT037 05/00 A3016 RMK AO2
KOLE 161555Z AUTO 30008G18KT 260V330 10SM BKN028 BKN035 OVC041 06/01 A3016 RMK AO2
KOLE 161515Z AUTO 32011G20KT 10SM SCT028 BKN040 OVC046 06/00 A3015 RMK AO2
KOLE 161455Z AUTO 28008KT 220V320 10SM SCT023 BKN036 OVC043 06/01 A3015 RMK AO2
KOLE 161435Z AUTO 31006G14KT 10SM SCT016 SCT021 BKN036 06/01 A3015 RMK AO2
KOLE 161415Z AUTO 30005KT 10SM BKN016 BKN036 OVC043 05/02 A3015 RMK AO2
KOLE 161355Z AUTO 29004KT 10SM OVC012 05/02 A3015 RMK AO2
KOLE 161335Z AUTO 00000KT 10SM OVC010 03/02 A3014 RMK AO2
KOLE 161315Z AUTO 00000KT 10SM OVC012 03/02 A3014 RMK AO2
KOLE 161255Z AUTO 00000KT 10SM BKN010 BKN016 03/02 A3013 RMK AO2
KOLE 161235Z AUTO 00000KT 10SM SCT010 SCT015 SCT025 02/02 A3012 RMK AO2
KOLE 161215Z AUTO 00000KT 10SM BKN010 BKN019 BKN025 03/02 A3011 RMK AO2
KOLE 161155Z AUTO 33004KT 10SM BKN010 OVC017 03/02 A3010 RMK AO2
KOLE 161135Z AUTO 00000KT 10SM OVC010 03/02 A3010 RMK AO2
KOLE 161115Z AUTO 00000KT 10SM OVC010 03/02 A3010 RMK AO2
KOLE 161055Z AUTO 34005KT 10SM BKN010 OVC014 03/02 A3009 RMK AO2
KOLE 161035Z AUTO 34006KT 10SM OVC010 03/03 A3009 RMK AO2
KOLE 161015Z AUTO 34004KT 10SM OVC010 03/03 A3009 RMK AO2
KOLE 160955Z AUTO 35004KT 10SM BKN010 BKN013 OVC022 03/03 A3008 RMK AO2
KOLE 160935Z AUTO 00000KT 10SM BKN010 BKN015 OVC022 03/03 A3007 RMK AO2
KOLE 160915Z AUTO 34003KT 10SM OVC010 03/03 A3006 RMK AO2
KOLE 160855Z AUTO 33004KT 10SM BKN010 OVC017 03/03 A3005 RMK AO2
KOLE 160835Z AUTO 33005KT 10SM BKN010 OVC022 03/03 A3004 RMK AO2
KOLE 160815Z AUTO 33005KT 10SM BKN009 OVC020 04/04 A3004 RMK AO2
KOLE 160755Z AUTO 32005KT 10SM BKN007 OVC017 04/04 A3003 RMK AO2
KOLE 160735Z AUTO 33009KT 4SM -DZ OVC007 04/04 A3003 RMK AO2
KOLE 160715Z AUTO 32006G15KT 5SM BR OVC007 04/04 A3002 RMK AO2
KOLE 160655Z AUTO 31007KT 270V340 7SM -DZ BKN009 BKN012 OVC021 05/05 A3002 RMK AO2
KOLE 160635Z AUTO 31006KT 280V350 10SM BKN009 BKN016 OVC028 05/05 A3002 RMK AO2
KOLE 160615Z AUTO 31008G14KT 7SM DZ BKN014 OVC019 05/04 A3002 RMK AO2
KOLE 160555Z AUTO 32006KT 10SM BKN016 OVC022 06/04 A3001 RMK AO2
KOLE 160535Z AUTO 31003KT 10SM OVC018 06/03 A3000 RMK AO2
KOLE 160515Z AUTO 31009G17KT 270V330 10SM OVC018 06/03 A3000 RMK AO2
KOLE 160455Z AUTO 32010G17KT 10SM OVC018 06/03 A2999 RMK AO2
KOLE 160435Z AUTO 31006KT 10SM OVC016 06/05 A2998 RMK AO2
KOLE 160415Z AUTO 32007KT 270V340 7SM DZ OVC016 07/05 A2997 RMK AO2
KOLE 160355Z AUTO 32006G17KT 280V340 10SM OVC016 07/05 A2996 RMK AO2
KOLE 160335Z AUTO 31011G21KT 10SM OVC016 08/06 A2994 RMK AO2
KOLE 160315Z AUTO 31014G25KT 10SM OVC014 08/06 A2994 RMK AO2
KOLE 160255Z AUTO 29009G20KT 250V340 10SM OVC014 08/07 A2993 RMK AO2
KOLE 160235Z AUTO 31016G27KT 10SM OVC012 09/08 A2992 RMK AO2
KOLE 160215Z AUTO 30012G19KT 270V330 10SM -RA OVC012 10/09 A2990 RMK AO2
KOLE 160155Z AUTO 30008G20KT 230V340 10SM -DZ BKN014 BKN021 OVC050 11/10 A2990 RMK AO2
KOLE 160135Z AUTO 28010G20KT 230V300 10SM BKN018 BKN023 OVC050 11/09 A2988 RMK AO2
KOLE 160115Z AUTO 29008G16KT 220V360 10SM OVC018 12/10 A2987 RMK AO2
KOLE 160055Z AUTO 27004KT 10SM OVC018 12/11 A2986 RMK AO2
KOLE 160035Z AUTO 26007G18KT 10SM BKN018 OVC023 12/11 A2985 RMK AO2
KOLE 160015Z AUTO 26006G15KT 10SM BKN020 BKN025 OVC040 12/11 A2985 RMK AO2
KOLE 152355Z AUTO 28005G21KT 250V340 10SM SCT020 BKN026 OVC030 12/11 A2984 RMK AO2
KOLE 152335Z AUTO 26013G26KT 220V310 10SM -DZ SCT008 BKN019 OVC028 12/11 A2982 RMK AO2
KOLE 152315Z AUTO 29014G29KT 250V310 5SM +DZ OVC008 13/13 A2982 RMK AO2
KOLE 152255Z AUTO 28007G17KT 4SM DZ OVC008 13/13 A2981 RMK AO2
KOLE 152235Z AUTO 29010G20KT 260V320 10SM -RA OVC008 13/13 A2980 RMK AO2
KOLE 152215Z AUTO 29013G25KT 7SM -RA OVC008 14/14 A2979 RMK AO2
KOLE 152155Z AUTO 27012G19KT 230V320 3SM RA BKN008 OVC015 16/16 A2976 RMK AO2
KOLE 152135Z AUTO 26009G33KT 190V320 1 1/2SM +RA SCT010 BKN023 OVC031 16/16 A2975 RMK AO2
KOLE 152115Z AUTO 22010G19KT 200V260 10SM BKN036 OVC045 21/15 A2971 RMK AO2
KOLE 152055Z AUTO 23012G21KT 210V280 10SM BKN034 BKN042 OVC048 21/15 A2972 RMK AO2
KOLE 152035Z AUTO 23016G27KT 200V270 10SM BKN033 OVC043 21/15 A2973 RMK AO2
KOLE 152015Z AUTO 23014G22KT 10SM BKN031 BKN038 22/15 A2972 RMK AO2
KOLE 151955Z AUTO 22014G27KT 200V300 10SM BKN031 BKN039 BKN048 22/16 A2973 RMK AO2
KOLE 151935Z AUTO 23010G26KT 200V270 10SM BKN029 BKN037 BKN050 21/16 A2974 RMK AO2
KOLE 151915Z AUTO 23009G24KT 200V260 10SM BKN027 22/16 A2974 RMK AO2
KOLE 151855Z AUTO 24013G21KT 200V260 10SM BKN025 OVC032 21/16 A2975 RMK AO2
KOLE 151835Z AUTO 21014G22KT 10SM OVC023 21/17 A2975 RMK AO2
KOLE 151815Z AUTO 21014G22KT 180V240 10SM OVC023 20/16 A2978 RMK AO2
KOLE 151755Z AUTO 23013G21KT 200V260 10SM OVC023 20/16 A2979 RMK AO2
KOLE 151735Z AUTO 23014G22KT 210V280 10SM OVC023 20/16 A2980 RMK AO2
KOLE 151715Z AUTO 23011G23KT 200V280 10SM OVC023 21/16 A2981 RMK AO2
KOLE 151655Z AUTO 23009G22KT 10SM OVC023 20/16 A2982 RMK AO2
KOLE 151635Z AUTO 22011G19KT 10SM OVC021 20/17 A2982 RMK AO2
KOLE 151615Z AUTO 22011G20KT 200V260 10SM OVC019 20/17 A2984 RMK AO2
KOLE 151555Z AUTO 23009G18KT 10SM OVC019 20/17 A2984 RMK AO2
KOLE 151535Z AUTO 22007KT 10SM OVC019 19/17 A2985 RMK AO2
KOLE 151515Z AUTO 23010G18KT 10SM OVC019 19/17 A2986 RMK AO2
KOLE 151455Z AUTO 21011G17KT 10SM OVC019 18/16 A2986 RMK AO2
KOLE 151435Z AUTO 21013G18KT 10SM OVC017 18/16 A2987 RMK AO2
KOLE 151415Z AUTO 21011KT 10SM BKN017 18/16 A2987 RMK AO2